Time;durP1;ratioP1;P1;durP2;ratioP2;P2;SDS_P1;SDS_P2;PMS_P1;PMS_P2;Temp;Humidity;BMP_temperature;BMP_pressure;BME280_temperature;BME280_humidity;BME280_pressure;Samples;Min_cycle;Max_cycle;Signal;HPM_P1;HPM_P2
2022/04/28 09:17:21;;;;;;;63.88;31.10;;;9.80;99.90;;;8.61;100.00;102541.72;5073882;27;21055;-75
2022/04/28 09:19:58;;;;;;;62.42;31.77;;;9.90;99.90;;;8.91;100.00;102536.19;5012680;28;20043;-77
2022/04/28 09:22:23;;;;;;;48.83;24.33;;;10.10;99.90;;;9.07;100.00;102537.78;5019404;28;20025;-77
2022/04/28 09:24:57;;;;;;;44.88;22.73;;;10.20;99.90;;;9.23;99.79;102534.06;4991887;28;20103;-76
2022/04/28 09:27:25;;;;;;;51.42;27.42;;;10.40;99.90;;;9.70;97.25;102541.34;5011173;28;20485;-77
2022/04/28 09:29:52;;;;;;;38.20;20.15;;;10.70;99.90;;;10.22;94.64;102540.59;4985636;28;20033;-76
2022/04/28 09:32:21;;;;;;;33.53;18.70;;;11.10;99.90;;;10.55;90.81;102540.94;5002549;28;20723;-77
2022/04/28 09:34:56;;;;;;;35.72;19.58;;;11.30;99.90;;;10.74;87.89;102539.72;5021742;28;20061;-75
2022/04/28 09:37:26;;;;;;;37.63;19.40;;;11.50;99.90;;;10.99;87.50;102555.06;4968669;28;20042;-77
2022/04/28 09:42:42;;;;;;;32.65;17.63;;;12.10;99.90;;;11.33;83.58;102547.34;4963622;28;20087;-77
2022/04/28 09:45:20;;;;;;;38.03;20.67;;;12.10;99.90;;;11.38;81.42;102541.97;4979357;28;20054;-77
2022/04/28 09:48:00;;;;;;;33.05;18.80;;;12.40;99.90;;;11.96;80.70;102546.00;4982639;28;20112;-77
2022/04/28 09:50:31;;;;;;;31.98;18.65;;;12.60;99.90;;;12.19;77.90;102539.31;4976385;28;20498;-77
2022/04/28 09:53:08;;;;;;;33.60;18.15;;;12.70;99.90;;;12.06;76.36;102544.88;4991232;28;20091;-77
2022/04/28 09:55:39;;;;;;;27.20;16.17;;;13.00;99.90;;;12.49;76.95;102542.94;4971373;28;20030;-77
2022/04/28 09:58:12;;;;;;;29.25;16.08;;;13.50;99.90;;;13.55;76.38;102547.97;4962851;28;20031;-78
2022/04/28 10:00:44;;;;;;;24.25;14.50;;;14.20;99.90;;;14.11;71.79;102542.69;4971485;28;20025;-77
2022/04/28 10:03:16;;;;;;;22.10;14.30;;;14.70;99.90;;;14.48;69.77;102544.09;5001899;28;20025;-77
2022/04/28 10:05:46;;;;;;;25.58;16.50;;;14.80;99.90;;;14.23;67.90;102553.78;5005605;28;20121;-77
2022/04/28 10:08:18;;;;;;;29.25;17.00;;;14.80;99.90;;;14.08;69.21;102555.13;5003053;28;20096;-77
2022/04/28 10:10:44;;;;;;;30.92;17.17;;;14.80;99.90;;;14.15;67.68;102552.25;4997506;28;20042;-78
2022/04/28 10:13:12;;;;;;;24.10;14.43;;;15.10;99.90;;;14.68;68.17;102561.13;4965082;28;21523;-77
2022/04/28 10:15:40;;;;;;;24.35;15.30;;;15.50;99.90;;;15.32;66.45;102556.16;4964310;28;20181;-77
2022/04/28 10:18:15;;;;;;;24.63;13.90;;;15.70;99.90;;;15.09;63.08;102542.88;4988038;28;20501;-80
2022/04/28 10:20:50;;;;;;;23.63;14.13;;;15.60;99.90;;;14.76;63.99;102556.44;4981679;28;20018;-77
2022/04/28 10:32:22;;;;;;;29.67;15.88;;;15.60;99.90;;;14.96;64.77;102564.53;4966454;28;20020;-77
2022/04/28 10:35:04;;;;;;;25.15;15.48;;;16.60;99.90;;;16.34;61.39;102571.66;4999328;28;20073;-77
2022/04/28 10:37:41;;;;;;;26.23;14.77;;;16.70;99.90;;;16.07;59.86;102565.69;5009141;28;20056;-77
2022/04/28 10:40:14;;;;;;;20.45;13.27;;;16.70;99.90;;;15.87;59.95;102565.59;5001851;28;20057;-76
2022/04/28 10:42:39;;;;;;;23.27;15.15;;;16.30;99.90;;;15.12;59.58;102566.66;4996628;28;21557;-76
2022/04/28 10:45:20;;;;;;;19.67;12.77;;;15.80;99.90;;;14.34;63.08;102572.84;4980585;28;20041;-76
2022/04/28 10:47:46;;;;;;;20.35;11.80;;;15.30;99.90;;;13.80;64.68;102581.63;4996791;28;20050;-76
2022/04/28 10:50:24;;;;;;;24.45;14.13;;;15.10;99.90;;;14.07;65.84;102572.81;5003491;28;20033;-75
2022/04/28 10:53:05;;;;;;;20.27;14.20;;;15.10;99.90;;;14.23;64.94;102574.97;5014971;28;20055;-76
2022/04/28 10:55:41;;;;;;;15.50;11.43;;;15.10;99.90;;;14.10;65.20;102578.03;4972023;28;20068;-76
2022/04/28 10:58:25;;;;;;;18.85;13.23;;;14.80;99.90;;;13.65;64.33;102565.31;4987337;28;20053;-75
2022/04/28 11:00:55;;;;;;;19.77;12.00;;;14.70;99.90;;;13.78;65.60;102578.16;5016080;28;20068;-74
2022/04/28 11:03:48;;;;;;;20.23;13.65;;;14.90;99.90;;;14.26;66.09;102575.75;5006295;28;20762;-75
2022/04/28 11:06:33;;;;;;;19.48;13.07;;;15.30;99.90;;;14.90;64.34;102583.34;4970042;28;20057;-74
2022/04/28 11:09:02;;;;;;;18.48;12.63;;;15.60;99.90;;;15.14;62.57;102578.94;4973571;28;20036;-75
2022/04/28 11:11:43;;;;;;;23.17;13.55;;;15.90;99.90;;;15.36;63.28;102579.00;5007783;28;20030;-75
2022/04/28 11:14:09;;;;;;;23.52;15.07;;;16.20;99.90;;;15.77;62.22;102587.22;4977009;28;20035;-75
2022/04/28 11:16:35;;;;;;;20.88;14.27;;;16.40;99.90;;;15.84;61.58;102582.53;4989159;28;20064;-75
2022/04/28 11:19:03;;;;;;;22.50;15.50;;;16.60;99.90;;;15.86;59.84;102577.16;4992169;28;20033;-75
2022/04/28 11:21:29;;;;;;;24.23;14.73;;;16.40;99.90;;;15.49;59.61;102579.41;5002376;28;20091;-75
2022/04/28 11:23:57;;;;;;;19.08;13.48;;;16.40;99.90;;;15.58;61.41;102579.06;4990224;28;20033;-75
2022/04/28 11:26:27;;;;;;;24.48;14.50;;;16.50;99.90;;;15.72;60.25;102585.66;4987077;28;20034;-74
2022/04/28 11:28:52;;;;;;;22.42;14.63;;;16.70;99.90;;;15.97;60.53;102580.25;4990446;28;20041;-75
2022/04/28 11:31:19;;;;;;;20.65;13.63;;;16.90;99.90;;;16.27;60.23;102583.47;4990588;28;20038;-75
2022/04/28 11:33:50;;;;;;;18.83;13.73;;;17.10;99.90;;;16.36;58.59;102585.75;5003769;28;20038;-75
2022/04/28 11:36:24;;;;;;;16.52;11.65;;;17.10;99.90;;;16.16;58.10;102589.22;4991498;28;20503;-75
2022/04/28 11:38:57;;;;;;;20.52;13.40;;;17.00;99.90;;;16.13;57.87;102584.03;4987962;28;20034;-76
2022/04/28 11:41:35;;;;;;;22.23;13.50;;;17.00;99.90;;;16.00;58.71;102585.44;4996182;28;20110;-74
2022/04/28 11:44:06;;;;;;;22.10;13.25;;;16.80;99.90;;;15.79;58.79;102587.16;4972743;28;20049;-75
2022/04/28 11:46:35;;;;;;;17.58;11.80;;;16.80;99.90;;;15.76;58.62;102587.28;5015250;28;20461;-75
2022/04/28 11:49:00;;;;;;;18.83;11.85;;;16.70;99.90;;;15.74;58.82;102590.00;5002462;28;22899;-75
2022/04/28 11:51:26;;;;;;;21.33;10.93;;;16.70;99.90;;;15.67;58.74;102590.25;4991328;28;20088;-75
2022/04/28 11:53:55;;;;;;;16.65;9.90;;;16.40;99.90;;;15.17;58.77;102580.63;4988097;28;20053;-75
2022/04/28 11:56:33;;;;;;;16.13;9.85;;;16.20;99.90;;;15.09;58.86;102582.69;4988428;28;20499;-75
2022/04/28 11:59:02;;;;;;;15.30;10.23;;;16.20;99.90;;;15.29;58.98;102585.47;4999850;28;20044;-76
2022/04/28 12:01:32;;;;;;;13.85;9.65;;;16.20;99.90;;;15.21;59.34;102587.53;4989712;28;20671;-75
2022/04/28 12:03:59;;;;;;;15.95;8.65;;;16.10;99.90;;;15.10;60.06;102585.28;4990627;28;20036;-75
2022/04/28 12:06:25;;;;;;;22.40;10.55;;;16.00;99.90;;;14.97;60.35;102587.50;4990177;28;20510;-76
2022/04/28 12:08:57;;;;;;;20.08;11.43;;;16.00;99.90;;;15.03;61.27;102593.50;5000401;28;20041;-75
2022/04/28 12:14:25;;;;;;;15.55;10.40;;;16.10;99.90;;;15.12;61.49;102587.88;4988897;28;20117;-75
2022/04/28 12:20:21;;;;;;;16.58;8.48;;;;;;;15.21;58.89;102576.06;882194;26;20331;-75
2022/04/28 12:23:33;;;;;;;14.75;8.45;;;16.00;99.90;;;14.94;57.49;102569.03;4841416;28;20031;-78
2022/04/28 12:33:20;;;;;;;20.52;10.02;;;;;;;15.12;60.74;102577.28;4817993;28;20628;-77
2022/04/28 12:36:21;;;;;;;19.30;9.18;;;16.10;99.90;;;15.19;60.14;102576.13;4872787;28;20043;-75
2022/04/28 12:40:02;;;;;;;15.10;9.18;;;16.20;99.90;;;15.41;59.58;102577.97;4903947;28;20097;-75
2022/04/28 12:42:39;;;;;;;15.30;8.82;;;16.30;99.90;;;15.38;58.74;102573.66;4717961;29;20045;-75
2022/04/28 12:45:41;;;;;;;15.18;9.50;;;16.30;99.90;;;15.41;60.33;102584.16;4753427;29;20050;-75
2022/04/28 12:48:32;;;;;;;13.18;9.38;;;16.50;99.90;;;15.73;59.57;102582.09;4895242;28;20030;-75
2022/04/28 12:51:12;;;;;;;15.05;8.63;;;16.60;99.90;;;15.95;58.89;102587.44;4974234;28;20030;-75
2022/04/28 12:53:45;;;;;;;16.23;8.10;;;16.60;99.90;;;15.72;57.14;102575.94;4957299;28;20042;-75
2022/04/28 12:56:14;;;;;;;13.75;8.52;;;16.60;99.90;;;15.67;56.47;102569.88;4969527;28;20041;-76
2022/04/28 12:58:43;;;;;;;12.90;8.25;;;16.60;99.90;;;15.72;56.46;102567.97;4989524;28;20022;-76
2022/04/28 13:01:12;;;;;;;12.60;7.05;;;16.70;99.90;;;15.67;57.24;102577.84;4971025;28;20710;-76
2022/04/28 13:03:40;;;;;;;12.60;8.00;;;16.60;99.90;;;15.66;56.34;102567.28;4918035;28;20027;-75
2022/04/28 13:06:08;;;;;;;16.58;7.93;;;16.70;99.90;;;15.76;57.34;102574.84;4979168;28;20064;-76
2022/04/28 13:08:34;;;;;;;15.50;8.88;;;16.60;99.90;;;15.65;57.33;102570.88;4922872;28;20077;-76
2022/04/28 13:11:01;;;;;;;10.60;7.20;;;16.60;99.90;;;15.59;56.91;102574.59;4965747;28;20038;-76
2022/04/28 13:13:28;;;;;;;10.35;7.75;;;16.60;99.90;;;15.63;55.81;102572.72;4966666;28;20031;-76
2022/04/28 13:15:56;;;;;;;13.02;7.68;;;16.70;99.90;;;15.88;54.54;102570.88;4949743;28;20053;-76
2022/04/28 13:18:21;;;;;;;14.13;8.20;;;16.90;99.90;;;16.25;56.30;102574.69;4952742;28;20134;-76
2022/04/28 13:20:47;;;;;;;10.25;6.63;;;17.10;99.90;;;16.43;56.48;102574.84;4958072;28;20596;-77
2022/04/28 13:23:13;;;;;;;12.27;7.60;;;17.10;99.90;;;16.22;54.96;102571.28;4957625;28;20049;-76
2022/04/28 13:25:38;;;;;;;10.85;6.65;;;17.00;99.90;;;16.05;53.23;102569.34;4988538;28;20040;-76
2022/04/28 13:28:04;;;;;;;11.43;7.78;;;17.10;99.90;;;16.19;55.35;102572.28;4958751;28;20088;-77
2022/04/28 13:30:30;;;;;;;;;;;17.00;99.90;;;16.26;54.16;102572.88;4932978;28;20049;-77
2022/04/28 13:32:56;;;;;;;11.13;7.50;;;17.20;99.90;;;16.30;55.08;102583.34;4978361;28;20429;-76
2022/04/28 13:35:21;;;;;;;;;;;17.20;99.90;;;16.18;53.07;102570.56;4975954;28;20458;-77
2022/04/28 13:37:50;;;;;;;13.40;8.02;;;17.10;99.90;;;16.22;54.56;102572.19;4920769;28;19926;-76
2022/04/28 13:40:15;;;;;;;14.68;8.73;;;17.00;99.90;;;15.96;54.76;102567.88;4951551;28;20126;-74
2022/04/28 13:42:41;;;;;;;15.40;7.35;;;17.10;99.90;;;16.26;53.43;102567.56;4954128;28;20457;-76
2022/04/28 13:45:07;;;;;;;11.68;7.20;;;17.00;99.90;;;16.16;52.64;102564.44;4957042;28;20114;-76
2022/04/28 13:47:33;;;;;;;14.85;9.05;;;17.10;99.90;;;16.16;53.75;102575.06;4973523;23;20046;-76
2022/04/28 13:50:23;;;;;;;;;;;;;;;;;;;;;
2022/04/28 13:53:45;;;;;;;;;;;;;;;;;;;;;
2022/04/28 13:56:27;;;;;;;;;;;;;;;;;;;;;
2022/04/28 13:59:17;;;;;;;12.25;6.80;;;;;;;15.80;51.57;102564.97;4884975;28;20032;-75
2022/04/28 14:02:23;;;;;;;11.32;6.10;;;16.80;99.90;;;15.83;50.71;102562.22;4784786;28;20059;-75
2022/04/28 14:08:51;;;;;;;13.68;6.47;;;16.90;99.90;;;16.01;50.84;102571.25;4755027;29;20055;-75
2022/04/28 14:11:45;;;;;;;10.70;5.22;;;16.90;99.40;;;15.84;47.29;102571.06;4796954;29;20143;-75
2022/04/28 14:14:24;;;;;;;10.75;6.32;;;16.80;99.50;;;15.94;49.30;102575.09;4696825;29;20039;-75
2022/04/28 14:17:06;;;;;;;11.38;7.03;;;16.90;99.40;;;16.02;48.63;102574.75;4748759;29;20083;-75
2022/04/28 14:19:45;;;;;;;7.00;4.40;;;;;;;16.03;47.79;102574.72;4729606;29;20160;-75
2022/04/28 14:22:17;;;;;;;12.30;6.30;;;16.80;98.00;;;15.89;48.01;102577.91;4815142;28;20514;-76
2022/04/28 14:25:17;;;;;;;;;;;;;;;;;;;;;
2022/04/28 14:28:04;;;;;;;7.35;4.25;;;16.90;95.30;;;15.95;45.98;102584.78;4858138;23;20281;-76
2022/04/28 14:30:46;;;;;;;8.63;5.13;;;;;;;15.91;47.00;102591.13;4877452;28;20070;-75
2022/04/28 14:33:35;;;;;;;9.52;6.40;;;16.70;98.10;;;15.81;47.76;102589.75;4872511;28;20050;-75
2022/04/28 14:36:15;;;;;;;;;;;;;;;;;;;;;
2022/04/28 14:39:31;;;;;;;9.70;4.78;;;17.00;97.30;;;16.25;47.35;102592.44;4841454;28;20706;-76
2022/04/28 14:41:52;;;;;;;13.50;6.20;;;17.00;97.60;;;16.12;47.39;102586.75;4921050;28;20137;-75
2022/04/28 14:45:22;;;;;;;11.18;5.88;;;16.90;97.50;;;15.89;48.22;102585.00;4873491;28;20107;-76
2022/04/28 14:48:15;;;;;;;11.60;6.18;;;16.80;99.00;;;15.82;48.42;102588.84;4869630;28;20031;-75
2022/04/28 14:53:29;;;;;;;17.88;6.85;;;16.80;98.40;;;15.92;48.63;102591.06;4945857;28;20514;-75
2022/04/28 14:55:57;;;;;;;11.48;7.50;;;16.80;98.30;;;16.05;48.73;102578.16;4947797;28;20042;-76
2022/04/28 14:58:23;;;;;;;11.23;6.47;;;16.80;99.00;;;16.03;48.52;102588.00;4935053;28;20046;-76
2022/04/28 15:00:50;;;;;;;12.95;6.03;;;16.80;97.80;;;16.02;47.74;102588.03;4935730;28;20026;-76
2022/04/28 15:03:16;;;;;;;9.40;5.60;;;16.90;97.80;;;16.10;47.25;102589.47;4926031;28;20027;-75
2022/04/28 15:05:42;;;;;;;16.85;6.10;;;16.90;98.90;;;16.14;48.48;102592.88;4923060;28;20472;-75
2022/04/28 15:08:11;;;;;;;8.75;5.00;;;16.90;96.90;;;16.08;47.52;102583.34;4915062;23;20180;-76
2022/04/28 15:10:39;;;;;;;13.95;5.85;;;16.90;97.00;;;16.02;47.00;102586.25;4925753;28;20075;-75
2022/04/28 15:13:08;;;;;;;8.95;5.60;;;16.90;98.60;;;16.02;48.23;102588.03;4887506;29;20040;-75
2022/04/28 15:15:35;;;;;;;9.50;4.95;;;16.90;99.00;;;15.95;49.26;102588.28;4893293;29;20025;-75
2022/04/28 15:18:02;;;;;;;9.15;6.03;;;16.80;98.00;;;15.77;48.46;102581.91;4877778;29;20063;-75
2022/04/28 15:20:30;;;;;;;12.10;5.97;;;16.80;98.10;;;15.74;49.32;102579.38;4878824;29;20036;-76
2022/04/28 15:22:56;;;;;;;8.15;5.30;;;16.70;97.90;;;15.71;48.70;102579.50;4871362;29;20041;-75
2022/04/28 15:25:22;;;;;;;8.43;5.15;;;16.80;98.10;;;15.88;48.43;102583.28;4877922;29;20402;-75
2022/04/28 15:27:48;;;;;;;9.10;4.95;;;16.80;97.40;;;15.90;47.56;102586.75;4888913;29;20040;-75
2022/04/28 15:30:14;;;;;;;9.43;4.20;;;16.70;95.60;;;15.73;46.21;102588.25;4888301;28;20123;-75
2022/04/28 15:32:42;;;;;;;7.13;3.60;;;16.70;96.50;;;15.64;46.95;102593.91;4861610;29;20088;-75
2022/04/28 15:35:10;;;;;;;6.75;3.40;;;16.60;96.20;;;15.55;46.43;102592.47;4856137;29;20437;-75
2022/04/28 15:37:36;;;;;;;8.52;3.30;;;16.40;95.40;;;15.29;46.02;102595.22;4848748;29;20096;-75
2022/04/28 15:40:07;;;;;;;8.90;3.88;;;16.20;96.10;;;15.15;46.57;102598.38;4897817;29;20058;-75
2022/04/28 15:42:35;;;;;;;4.20;3.05;;;16.20;97.10;;;15.28;47.34;102591.69;4872050;29;20438;-75
2022/04/28 15:45:01;;;;;;;7.65;2.95;;;16.10;95.00;;;15.01;46.07;102596.22;4863223;29;20110;-75
2022/04/28 15:47:27;;;;;;;5.63;2.78;;;15.90;96.10;;;14.87;46.66;102594.03;4878431;29;20107;-75
2022/04/28 15:49:53;;;;;;;4.65;2.53;;;15.90;97.00;;;14.82;47.72;102595.16;4878004;29;20032;-75
2022/04/28 15:52:18;;;;;;;9.82;3.03;;;15.80;96.30;;;14.81;47.13;102594.25;4866598;28;20076;-75
2022/04/28 15:54:44;;;;;;;3.63;2.40;;;15.80;97.10;;;14.82;47.55;102585.41;4901863;29;20104;-75
2022/04/28 15:57:11;;;;;;;5.05;2.30;;;15.60;95.50;;;14.51;46.52;102589.06;4872508;29;20480;-75
2022/04/28 15:59:39;;;;;;;3.83;1.58;;;15.50;94.50;;;14.32;45.41;102591.47;4847185;29;20559;-75
2022/04/28 16:02:11;;;;;;;4.50;1.90;;;15.30;94.00;;;14.06;45.44;102586.09;4886848;29;20115;-75
2022/04/28 16:04:37;;;;;;;4.57;2.30;;;15.10;95.00;;;13.99;46.30;102592.53;4878397;29;20087;-75
2022/04/28 16:07:06;;;;;;;4.22;2.17;;;15.00;95.00;;;13.82;46.22;102593.03;4892699;29;20048;-75
2022/04/28 16:09:33;;;;;;;3.30;2.00;;;14.90;96.70;;;13.82;47.58;102585.09;4886470;29;20099;-75
2022/04/28 16:11:59;;;;;;;5.93;2.20;;;14.90;95.10;;;13.82;46.77;102588.63;4894553;28;20515;-75
2022/04/28 16:14:24;;;;;;;4.80;2.28;;;14.80;95.90;;;13.83;47.25;102593.00;4846280;28;20139;-75
2022/04/28 16:16:50;;;;;;;;;;;14.90;96.70;;;13.69;46.31;102581.94;4911573;28;20078;-75
2022/04/28 16:19:16;;;;;;;3.42;1.80;;;14.80;95.30;;;13.73;46.50;102591.53;4895140;28;19914;-75
2022/04/28 16:21:42;;;;;;;4.32;1.70;;;14.70;95.30;;;13.61;46.14;102592.78;4873710;29;20031;-75
2022/04/28 16:24:09;;;;;;;2.55;1.75;;;14.70;96.60;;;13.65;47.95;102593.53;4878321;29;20045;-76
2022/04/28 16:26:36;;;;;;;3.58;1.67;;;14.70;95.00;;;13.69;46.80;102589.88;4862079;29;20040;-76
2022/04/28 16:29:03;;;;;;;3.58;1.70;;;14.70;95.60;;;13.63;47.03;102588.31;4851825;28;20035;-76
2022/04/28 16:31:29;;;;;;;5.03;1.80;;;14.60;95.10;;;13.60;46.77;102595.47;4872743;29;20401;-75
2022/04/28 16:33:55;;;;;;;6.35;1.60;;;14.50;94.00;;;13.48;45.28;102586.13;4870818;29;20465;-75
2022/04/28 16:36:21;;;;;;;3.25;1.60;;;14.50;94.70;;;13.41;46.00;102590.72;4849264;29;20043;-75
2022/04/28 16:38:47;;;;;;;4.57;1.92;;;14.50;95.10;;;13.42;46.43;102586.28;4890775;28;20098;-76
2022/04/28 16:41:16;;;;;;;2.75;1.30;;;14.40;95.50;;;13.38;46.86;102589.94;4871036;28;20046;-75
2022/04/28 16:43:44;;;;;;;4.85;1.70;;;14.40;95.60;;;13.24;47.17;102588.53;4918306;28;20046;-75
2022/04/28 16:46:11;;;;;;;4.60;2.00;;;14.30;96.40;;;13.22;47.65;102586.84;4901594;28;20440;-75
2022/04/28 16:48:37;;;;;;;4.18;1.90;;;14.20;97.00;;;13.09;48.95;102581.03;4894056;28;20028;-75
2022/04/28 16:51:05;;;;;;;4.93;2.20;;;14.20;96.60;;;12.98;48.65;102581.31;4902922;28;20047;-75
2022/04/28 16:53:31;;;;;;;4.93;1.70;;;14.00;96.40;;;12.90;48.62;102581.50;4890314;28;20040;-75
2022/04/28 16:55:58;;;;;;;5.40;1.73;;;14.00;96.80;;;12.84;49.20;102586.94;4884142;29;20036;-76
2022/04/28 16:58:25;;;;;;;3.13;1.77;;;13.90;96.80;;;12.82;48.96;102590.56;4893342;28;20024;-75
2022/04/28 17:00:51;;;;;;;5.90;1.63;;;13.90;96.60;;;12.80;48.87;102587.94;4903639;28;20034;-76
2022/04/28 17:06:04;;;;;;;3.00;1.83;;;13.80;96.20;;;12.68;48.42;102583.84;4866143;28;20915;-75
2022/04/28 17:08:29;;;;;;;3.15;1.75;;;13.60;97.00;;;12.62;49.37;102588.44;4918679;28;20099;-76
2022/04/28 17:10:57;;;;;;;11.63;2.97;;;13.70;96.90;;;12.54;48.90;102585.97;4871206;29;20059;-76
2022/04/28 17:13:24;;;;;;;5.65;2.10;;;13.60;95.60;;;12.46;48.20;102582.66;4890506;29;20021;-77
2022/04/28 17:15:51;;;;;;;1.83;1.38;;;13.60;97.00;;;12.37;49.21;102583.75;4883288;28;20092;-76
2022/04/28 17:18:21;;;;;;;3.90;1.90;;;13.50;97.20;;;12.34;49.66;102588.25;4887344;29;20112;-76
2022/04/28 17:20:48;;;;;;;5.10;2.05;;;13.40;98.10;;;12.19;50.84;102582.41;4888056;28;20028;-76
2022/04/28 17:23:13;;;;;;;7.80;3.05;;;13.30;97.90;;;12.08;50.71;102584.44;4882598;29;20126;-75
2022/04/28 17:25:42;;;;;;;4.88;2.47;;;13.20;98.00;;;12.02;51.07;102576.66;4869341;29;20052;-76
2022/04/28 17:28:10;;;;;;;7.47;3.40;;;13.20;98.80;;;11.98;52.55;102588.19;4905049;29;20036;-76
2022/04/28 17:30:35;;;;;;;10.07;3.20;;;13.10;99.10;;;11.89;52.37;102586.63;4860499;29;20039;-76
2022/04/28 17:33:01;;;;;;;6.05;2.55;;;13.10;99.90;;;11.81;53.80;102580.63;4863943;29;20043;-76
2022/04/28 17:35:27;;;;;;;16.20;3.45;;;13.00;99.80;;;11.71;53.97;102579.97;4833439;29;20047;-75
2022/04/28 17:37:54;;;;;;;8.25;3.15;;;12.90;99.90;;;11.61;54.41;102587.19;4851124;28;20503;-76
2022/04/28 17:40:20;;;;;;;5.97;2.53;;;12.80;99.90;;;11.54;54.14;102579.47;4872721;29;20178;-75
2022/04/28 17:42:46;;;;;;;5.72;3.20;;;12.70;99.90;;;11.46;54.46;102582.25;4916969;28;20039;-76
2022/04/28 17:45:12;;;;;;;4.22;2.30;;;12.70;99.90;;;11.41;54.86;102578.84;4891806;28;20495;-76
2022/04/28 17:47:37;;;;;;;6.95;2.83;;;12.60;99.90;;;11.31;55.19;102582.56;4912082;28;20066;-75
2022/04/28 17:50:04;;;;;;;5.18;2.80;;;12.50;99.90;;;11.22;55.57;102588.91;4901859;28;20701;-76
2022/04/28 17:52:30;;;;;;;7.53;3.60;;;12.40;99.90;;;11.09;55.39;102577.72;4912228;28;20970;-76
2022/04/28 18:00:27;;;;;;;10.25;2.47;;;12.10;99.90;;;10.74;54.95;102575.75;4881676;29;20039;-75
2022/04/28 18:02:53;;;;;;;7.35;2.30;;;12.00;99.80;;;10.63;54.36;102576.78;4885561;28;20053;-75
2022/04/28 18:05:19;;;;;;;5.55;2.30;;;11.90;99.80;;;10.56;54.56;102587.44;4886777;29;20035;-75
2022/04/28 18:07:45;;;;;;;6.93;2.60;;;11.80;99.90;;;10.45;55.02;102580.63;4890590;29;20043;-75
2022/04/28 18:10:12;;;;;;;9.27;2.40;;;11.70;99.90;;;10.27;55.23;102588.75;4879271;28;20074;-75
2022/04/28 18:12:38;;;;;;;4.32;2.50;;;11.50;99.90;;;10.12;55.56;102589.88;4896233;28;20119;-76
2022/04/28 18:15:05;;;;;;;4.43;2.30;;;11.40;99.90;;;9.97;56.50;102582.19;4891070;28;20048;-76
2022/04/28 18:17:31;;;;;;;5.93;2.65;;;11.20;99.90;;;9.77;56.95;102595.63;4883104;28;20047;-76
2022/04/28 18:19:57;;;;;;;9.63;2.90;;;11.00;99.90;;;9.51;57.26;102586.31;4898101;28;20121;-76
2022/04/28 18:22:24;;;;;;;7.57;3.45;;;10.80;99.90;;;9.41;57.74;102585.53;4899948;28;20047;-76
2022/04/28 18:24:49;;;;;;;7.30;3.00;;;10.70;99.90;;;9.25;57.72;102581.38;4896843;28;20492;-76
2022/04/28 18:27:15;;;;;;;10.60;3.05;;;10.50;99.90;;;9.08;57.99;102586.81;4874736;29;20172;-75
2022/04/28 18:29:41;;;;;;;7.55;2.88;;;10.30;99.90;;;8.97;59.18;102584.28;4872178;28;20703;-76
2022/04/28 18:32:10;;;;;;;6.95;3.00;;;10.30;99.90;;;8.87;58.75;102585.25;4889176;28;20036;-75
2022/04/28 18:34:36;;;;;;;7.82;3.28;;;10.20;99.90;;;8.78;58.97;102591.47;4890764;28;20024;-76
2022/04/28 18:45:24;;;;;;;6.10;3.53;;;9.70;99.90;;;8.30;59.21;102593.59;4875999;28;20055;-76
2022/04/28 18:47:50;;;;;;;8.80;3.65;;;9.60;99.90;;;8.21;59.53;102599.78;4841211;29;20616;-76
2022/04/28 18:50:23;;;;;;;4.43;2.40;;;9.50;99.90;;;8.09;59.79;102597.25;4855572;29;20062;-76
2022/04/28 18:52:49;;;;;;;5.63;2.72;;;9.40;99.90;;;7.96;59.74;102599.06;4902490;29;20025;-76
2022/04/28 18:55:15;;;;;;;7.53;2.42;;;9.30;99.90;;;7.83;60.41;102600.03;4880302;29;20044;-75
2022/04/28 18:57:41;;;;;;;11.77;2.15;;;9.20;99.90;;;7.70;61.53;102601.81;4872542;28;20020;-76
2022/04/28 19:00:15;;;;;;;7.10;2.17;;;9.00;99.90;;;7.60;61.68;102601.00;4878686;29;20040;-76
2022/04/28 19:02:41;;;;;;;10.50;2.42;;;9.00;99.90;;;7.52;61.39;102597.53;4898181;29;20024;-76
2022/04/28 19:05:08;;;;;;;6.95;2.97;;;8.90;99.90;;;7.44;61.42;102599.31;4907216;29;20033;-76
2022/04/28 19:07:35;;;;;;;4.60;1.92;;;8.70;99.90;;;7.35;61.19;102600.22;4887372;29;20040;-76
2022/04/28 19:10:05;;;;;;;4.07;2.00;;;8.70;99.90;;;7.25;61.45;102608.97;4858144;29;20032;-76
2022/04/28 19:12:31;;;;;;;6.75;2.15;;;8.60;99.90;;;7.18;61.22;102609.88;4847081;28;20037;-76
2022/04/28 19:15:04;;;;;;;4.43;1.83;;;8.50;99.90;;;7.09;61.36;102600.28;4878623;29;20087;-76
2022/04/28 19:17:36;;;;;;;9.95;1.90;;;8.50;99.90;;;7.01;61.45;102604.66;4881372;28;20036;-76
2022/04/28 19:20:09;;;;;;;8.82;1.90;;;8.40;99.90;;;6.95;61.03;102604.69;4858093;28;20037;-76
2022/04/28 19:22:37;;;;;;;11.30;2.25;;;8.30;99.90;;;6.88;60.91;102608.19;4858521;29;20025;-76
2022/04/28 19:25:07;;;;;;;4.53;2.22;;;8.20;99.90;;;6.81;61.26;102601.22;4860783;28;20043;-76
2022/04/28 19:27:33;;;;;;;11.52;2.72;;;8.10;99.90;;;6.72;61.08;102604.72;4904396;28;20083;-76
2022/04/28 19:30:01;;;;;;;6.07;2.47;;;8.10;99.90;;;6.66;61.65;102604.72;4899952;28;20480;-75
2022/04/28 19:32:30;;;;;;;7.63;2.03;;;8.00;99.90;;;6.59;61.79;102598.59;4899884;28;20516;-76
2022/04/28 19:34:56;;;;;;;9.60;2.80;;;7.90;99.90;;;6.54;61.68;102598.63;4907522;28;20052;-75
2022/04/28 19:37:23;;;;;;;6.00;1.95;;;7.90;99.90;;;6.49;61.52;102600.34;4877518;28;20028;-76
2022/04/28 19:39:49;;;;;;;3.80;2.00;;;7.80;99.90;;;6.45;61.26;102600.34;4876560;29;20036;-75
2022/04/28 19:42:21;;;;;;;6.53;2.10;;;7.80;99.90;;;6.39;61.34;102588.13;4881666;29;20562;-76
2022/04/28 19:44:52;;;;;;;7.10;2.65;;;7.80;99.90;;;6.33;61.53;102596.84;4900871;28;20033;-76
2022/04/28 19:47:18;;;;;;;8.98;2.67;;;7.70;99.90;;;6.28;61.17;102595.09;4861980;28;20036;-76
2022/04/28 19:49:47;;;;;;;4.80;1.88;;;7.60;99.90;;;6.19;61.84;102592.47;4886574;28;20055;-76
2022/04/28 19:52:13;;;;;;;6.80;2.00;;;7.50;99.90;;;6.08;61.95;102598.53;4883166;28;20033;-76
2022/04/28 19:54:46;;;;;;;9.32;1.95;;;7.50;99.90;;;6.01;62.30;102601.16;4919760;28;20046;-76
2022/04/28 19:57:17;;;;;;;5.57;1.95;;;7.30;99.90;;;5.86;62.94;102599.34;4898779;28;20520;-76
2022/04/28 19:59:46;;;;;;;6.30;2.72;;;7.20;99.90;;;5.71;63.07;102608.88;4906543;28;20048;-76
2022/04/28 20:02:13;;;;;;;3.55;2.20;;;7.10;99.90;;;5.59;63.19;102602.72;4911269;28;20035;-76
2022/04/28 20:04:43;;;;;;;6.80;2.80;;;7.00;99.90;;;5.50;63.98;102604.41;4901155;28;20036;-76
2022/04/28 20:07:16;;;;;;;5.60;2.47;;;6.90;99.90;;;5.41;64.24;102607.00;4882253;28;20079;-76
2022/04/28 20:09:48;;;;;;;11.13;3.50;;;6.80;99.90;;;5.29;64.76;102613.03;4877217;29;20041;-76
2022/04/28 20:12:26;;;;;;;8.45;3.10;;;6.70;99.90;;;5.18;65.32;102606.88;4855774;29;20207;-76
2022/04/28 20:14:55;;;;;;;6.05;2.80;;;6.60;99.90;;;5.07;65.55;102612.03;4900706;28;20638;-76
2022/04/28 20:17:32;;;;;;;7.25;2.30;;;6.60;99.90;;;4.98;65.99;102614.56;4919928;28;20069;-76
2022/04/28 20:19:58;;;;;;;6.45;2.08;;;6.50;99.90;;;4.96;66.54;102620.66;4900068;28;20043;-76
2022/04/28 20:22:25;;;;;;;7.35;2.30;;;6.50;99.90;;;4.94;66.66;102610.19;4923592;28;20024;-76
2022/04/28 20:24:55;;;;;;;8.70;1.98;;;6.40;99.90;;;4.92;66.76;102615.44;4902247;28;20539;-76
2022/04/28 20:27:26;;;;;;;5.32;2.05;;;6.30;99.90;;;4.88;66.88;102605.81;4898145;28;20111;-76
2022/04/28 20:30:01;;;;;;;10.48;2.40;;;6.30;99.90;;;4.86;66.68;102604.94;4916831;28;20059;-76
2022/04/28 20:32:28;;;;;;;11.00;2.60;;;6.30;99.90;;;4.83;66.28;102614.47;4884830;29;20037;-76
2022/04/28 20:35:01;;;;;;;9.75;2.08;;;6.30;99.90;;;4.81;65.63;102600.53;4865165;28;20035;-76
2022/04/28 20:37:26;;;;;;;7.53;2.20;;;6.20;99.90;;;4.76;65.96;102597.03;4872919;29;20040;-75
2022/04/28 20:39:53;;;;;;;7.57;1.73;;;6.20;99.90;;;4.69;66.80;102601.34;4907059;29;20032;-76
2022/04/28 20:42:22;;;;;;;7.07;2.42;;;6.10;99.90;;;4.67;66.77;102595.22;4897812;28;20095;-76